Steptoe Valley WMA, Nevada Weather observations

Data are for 10 minute period ending at time listed.
 Day   Time   Solar   Ave.   Ave.  Ave.  Vector  Max.   Baro.   Total    
  of    of     Rad.   Air    Rel.  Wind   Wind   Wind  Press.  Precip.   
Year   Day            Temp.  Hum.  Speed  Dir.   Gust                    
2017   (PST)  Kw/m2    F      %     mph   deg.    mph    mb.     in.     
-------------------------------------------------------------------------
 320   14:00   0.39   56.5    37   15.1   188    20.7   796.1    0.00 
 320   14:10   0.16   54.8    39   15.0   183    22.1   796.0    0.00 
 320   14:20   0.16   53.9    41   14.3   179    21.5   795.9    0.00 
 320   14:30   0.08   52.6    43   15.3   180    23.2   795.8    0.00 
 320   14:40   0.07   52.5    43   13.1   179    20.4   795.8    0.00 
 320   14:50   0.08   52.8    43   13.6   175    20.6   795.8    0.00 
 320   15:00   0.07   52.5    44   13.3   169    19.0   795.6    0.00 
 320   15:10   0.05   52.2    44   12.3   172    18.3   795.7    0.00 
 320   15:20   0.03   51.6    46   13.4   171    20.6   795.7    0.00 
 320   15:30   0.04   51.0    49   14.5   170    23.7   795.7    0.00 
 320   15:40   0.04   50.5    51   14.3   170    21.0   795.6    0.00 
 320   15:50   0.02   49.5    54   14.2   162    21.6   795.3    0.00 
 320   16:00   0.02   48.9    54   12.3   160    18.4   795.3    0.00 
 320   16:10   0.02   49.2    52   13.3   161    18.2   795.2    0.00 
 320   16:20   0.01   49.4    52   11.8   164    20.1   795.3    0.00 
 320   16:30   0.00   49.4    52   11.9   161    19.2   795.3    0.00 
 320   16:40   0.00   48.9    53   10.7   164    16.2   795.2    0.00 
 320   16:50   0.00   48.8    52   10.6   163    15.9   795.2    0.00 
 320   17:00   0.00   49.2    52   11.1   171    17.8   795.2    0.00 
 320   17:10   0.00   50.0    51   11.1   173    19.5   795.3    0.00 
 320   17:20   0.00   50.5    49   12.5   168    18.5   795.2    0.00 
 320   17:30   0.00   50.5    49   12.7   165    18.7   795.1    0.00 
 320   17:40   0.00   50.7    48   12.8   171    20.8   795.2    0.00 
 320   17:50   0.00   50.6    48   13.0   169    20.9   795.2    0.00 
 320   18:00   0.00   51.0    48   14.2   175    23.8   795.1    0.00 
 320   18:10   0.00   51.6    47   14.4   174    27.9   795.2    0.00 
 320   18:20   0.00   51.6    48   16.0   182    25.7   795.2    0.00 
 320   18:30   0.00   52.3    46   20.1   187    30.6   795.0    0.00 
 320   18:40   0.00   52.6    46   18.7   189    28.6   795.2    0.00 
 320   18:50   0.00   52.4    47   17.9   191    26.7   795.2    0.00 
 320   19:00   0.00   52.3    48   18.1   188    28.0   795.2    0.00 
 320   19:10   0.00   52.0    49   17.7   189    26.2   795.1    0.00 
 320   19:20   0.00   52.0    49   18.6   187    28.5   794.9    0.00 
 320   19:30   0.00   51.9    50   18.7   188    27.6   795.0    0.00 
 320   19:40   0.00   51.8    50   17.6   189    27.0   795.1    0.00 
 320   19:50   0.00   51.9    50   17.7   193    24.9   795.1    0.00 
 320   20:00   0.00   51.9    50   16.8   195    25.6   795.2    0.00 
 320   20:10   0.00   51.6    51   16.2   194    23.9   795.2    0.00 
 320   20:20   0.00   51.4    51   15.7   193    26.3   795.3    0.00 
 320   20:30   0.00   51.1    52   16.5   192    24.0   795.3    0.00 
 320   20:40   0.00   51.2    51   15.9   191    23.4   795.4    0.00 
 320   20:50   0.00   51.2    51   15.9   191    25.5   795.4    0.00 
 320   21:00   0.00   51.1    51   15.7   196    26.5   795.4    0.00 
 320   21:10   0.00   51.2    51   14.0   196    21.2   795.5    0.00 
 320   21:20   0.00   50.6    53   13.3   192    20.8   795.6    0.00 
 320   21:30   0.00   51.0    51   15.2   193    22.7   795.6    0.00 
 320   21:40   0.00   50.3    55   14.4   200    33.5   795.7    0.00 
 320   21:50   0.00   49.1    60   14.2   191    23.2   795.7    0.00 
 320   22:00   0.00   48.6    61   12.8   192    18.4   795.8    0.00 
 320   22:10   0.00   49.3    57   13.8   198    25.3   795.6    0.00 
 320   22:20   0.00   49.9    55   14.6   200    22.8   795.5    0.00 
 320   22:30   0.00   49.6    55   11.8   202    20.7   795.6    0.00 
 320   22:40   0.00   50.5    52   15.9   194    26.2   795.5    0.00 
 320   22:50   0.00   50.3    52   14.3   190    21.1   795.5    0.00 
 320   23:00   0.00   49.7    54   13.6   189    20.8   795.3    0.00 
 320   23:10   0.00   50.0    52   15.2   201    25.4   795.3    0.00 
 320   23:20   0.00   50.2    51   15.0   196    28.6   795.4    0.00 
 320   23:30   0.00   50.5    50   15.6   196    25.9   795.4    0.00 
 320   23:40   0.00   50.0    51   13.4   204    22.6   795.4    0.00 
 320   23:50   0.00   50.2    51   14.1   210    24.3   795.6    0.00 
 321    0:00   0.00   50.2    51   13.8   199    27.5   795.5    0.00 
 321    0:10   0.00   49.6    52   12.5   206    21.2   795.5    0.00 
 321    0:20   0.00   49.7    52   12.9   201    20.5   795.5    0.00 
 321    0:30   0.00   49.9    52   13.6   211    24.0   795.5    0.00 
 321    0:40   0.00   49.8    52   16.1   202    25.9   795.4    0.00 
 321    0:50   0.00   49.7    52   12.5   207    24.8   795.3    0.00 
 321    1:00   0.00   49.2    54   14.1   204    23.7   795.3    0.00 
 321    1:10   0.00   49.3    54   13.2   205    27.2   795.4    0.00 
 321    1:20   0.00   49.1    55   12.5   203    24.9   795.5    0.00 
 321    1:30   0.00   49.0    56   10.9   209    19.6   795.5    0.00 
 321    1:40   0.00   49.0    54   12.6   209    21.0   795.4    0.00 
 321    1:50   0.00   48.7    53    9.3   215    19.1   795.4    0.00 
 321    2:00   0.00   48.6    54   13.3   209    22.9   795.5    0.00 
 321    2:10   0.00   48.8    53   12.7   207    22.5   795.5    0.00 
 321    2:20   0.00   49.0    52   12.0   219    21.9   795.5    0.00 
 321    2:30   0.00   48.4    53   11.1   206    27.3   795.3    0.00 
 321    2:40   0.00   48.9    52   13.0   214    21.5   795.3    0.00 
 321    2:50   0.00   48.2    54   11.1   211    18.6   795.3    0.00 
 321    3:00   0.00   48.0    55   13.3   208    24.8   795.3    0.00 
 321    3:10   0.00   48.9    52   14.4   210    31.2   795.4    0.00 
 321    3:20   0.00   48.8    52   15.3   206    26.5   795.1    0.00 
 321    3:30   0.00   48.7    52   11.8   221    22.1   795.3    0.00 
 321    3:40   0.00   48.3    53   11.8   218    21.3   795.2    0.00 
 321    3:50   0.00   48.0    54    9.0   220    17.4   795.2    0.00 
 321    4:00   0.00   48.6    50   12.2   223    22.1   795.4    0.00 
 321    4:10   0.00   48.5    51   11.3   211    28.8   795.4    0.00 
 321    4:20   0.00   48.3    52   13.1   207    21.7   795.3    0.00 
 321    4:30   0.00   47.5    54   11.6   214    21.3   795.1    0.00 
 321    4:40   0.00   47.0    54    9.5   210    16.5   795.1    0.00 
 321    4:50   0.00   46.5    55    9.1   211    15.9   795.2    0.00 
 321    5:00   0.00   46.0    56    9.2   220    16.9   795.3    0.00 
 321    5:10   0.00   47.0    54   12.8   211    20.0   795.3    0.00 
 321    5:20   0.00   46.7    55   14.2   206    22.4   795.2    0.00 
 321    5:30   0.00   46.8    55   12.3   207    20.7   795.2    0.00 
 321    5:40   0.00   46.1    56   11.8   204    17.8   795.2    0.00 
 321    5:50   0.00   46.0    56   12.6   216    25.4   795.1    0.00 
 321    6:00   0.00   46.0    56   12.9   218    19.1   795.2    0.00 
 321    6:10   0.00   46.1    55   13.3   218    19.7   795.2    0.00 
 321    6:20   0.00   46.0    55   12.2   214    19.1   795.3    0.00 
 321    6:30   0.00   45.9    55   11.9   217    22.9   795.4    0.00 
 321    6:40   0.00   46.2    53    9.9   212    15.1   795.4    0.00 
 321    6:50   0.01   46.3    52   11.3   217    21.2   795.3    0.00 
 321    7:00   0.01   46.0    53   10.3   210    21.9   795.3    0.00 
 321    7:10   0.02   46.0    52   10.3   211    17.9   795.3    0.00 
 321    7:20   0.01   47.0    49   10.0   232    21.0   795.4    0.00 
 321    7:30   0.01   46.4    50    6.6   213    13.8   795.6    0.00 
 321    7:40   0.04   46.1    52    4.4   220    10.3   795.8    0.00 
 321    7:50   0.06   47.4    48    4.6   252    14.6   795.8    0.00 
 321    8:00   0.09   48.4    46    6.4   193    12.6   795.9    0.00 
 321    8:10   0.06   48.5    44   10.9   253    21.6   796.0    0.00 
 321    8:20   0.11   49.1    42    6.9   189    19.1   796.0    0.00 
 321    8:30   0.06   48.5    44    9.4   220    22.4   796.3    0.00 
 321    8:40   0.06   48.2    45   10.2   279    26.4   796.0    0.00 
 321    8:50   0.07   48.2    42   13.2   206    22.1   796.1    0.00 
 321    9:00   0.07   48.4    41    9.5   229    31.3   796.0    0.00 
 321    9:10   0.08   48.7    38    6.4   240    24.1   795.9    0.00 
 321    9:20   0.23   49.1    41    8.8   221    25.5   795.7    0.00 
 321    9:30   0.28   49.9    41   12.2   217    26.8   795.8    0.00 
 321    9:40   0.24   49.8    38   12.2   252    25.4   796.1    0.00 
 321    9:50   0.37   50.1    36   12.2   231    25.1   796.2    0.00 
 321   10:00   0.38   50.5    34   17.3   225    32.4   796.3    0.00 
 321   10:10   0.38   51.0    33   13.0   254    23.5   796.4    0.00 
 321   10:20   0.25   46.7    51   17.1   322    25.9   796.7    0.00 
 321   10:30   0.14   42.4    64   17.2   329    27.2   797.1    0.00 
 321   10:40   0.06   39.5    74   14.1   328    21.4   797.4    0.00 
 321   10:50   0.03   36.4    84    7.9   333    14.3   797.6    0.02 
 321   11:00   0.03   36.1    86   10.4   334    15.2   797.9    0.01 
 321   11:10   0.04   36.2    84   11.3   330    17.6   798.0    0.00 
 321   11:20   0.05   37.0    81   10.1   324    16.7   798.2    0.00 
 321   11:30   0.04   36.7    80   15.1   338    25.0   798.5    0.00 
 321   11:40   0.07   34.2    84   17.2   346    24.0   798.9    0.00 
 321   11:50   0.10   33.7    84   17.3   348    25.5   799.1    0.00 
 321   12:00   0.12   33.6    84   16.7   342    24.8   799.3    0.00 
 321   12:10   0.12   33.5    81   17.9   343    24.5   799.5    0.00 
 321   12:20   0.13   33.4    80   17.2   342    27.4   799.8    0.00 
 321   12:30   0.15   33.6    76   19.1   334    26.4   800.1    0.00 
 321   12:40   0.14   33.5    75   17.0   333    25.1   800.4    0.00 
 321   12:50   0.19   33.9    73   16.5   335    22.2   800.5    0.00 
 321   13:00   0.17   34.2    72   17.2   338    26.5   800.6    0.00 
 321   13:10   0.15   33.8    72   18.1   338    26.2   800.8    0.00 
 321   13:20   0.14   33.7    70   17.9   336    24.7   800.9    0.00 
 321   13:30   0.15   33.8    69   18.4   337    26.1   801.1    0.00 
 321   13:40   0.12   33.6    68   19.6   338    28.9   801.1    0.00 
 321   13:50   0.16   33.4    67   19.6   339    27.4   801.1    0.00 

Return to Steptoe Valley WMA graphs page.


Western Regional Climate Center,wrcc@dri.edu